Time;durP1;ratioP1;P1;durP2;ratioP2;P2;SDS_P1;SDS_P2;PMS_P1;PMS_P2;Temp;Humidity;BMP_temperature;BMP_pressure;BME280_temperature;BME280_humidity;BME280_pressure;Samples;Min_cycle;Max_cycle;Signal;HPM_P1;HPM_P2
2022/02/21 00:00:32;;;;;;;1.90;1.02;;;;;;;6.76;90.48;98242.28;5075021;28;20053;-68
2022/02/21 00:02:59;;;;;;;3.28;0.93;;;;;;;6.68;89.34;98257.00;5075447;28;20052;-68
2022/02/21 00:05:27;;;;;;;2.10;1.00;;;;;;;6.66;89.24;98259.31;5084858;28;20048;-68
2022/02/21 00:07:54;;;;;;;4.72;1.23;;;;;;;6.57;89.13;98239.22;5094848;28;20484;-69
2022/02/21 00:10:21;;;;;;;3.72;1.60;;;;;;;6.67;90.06;98228.53;5082542;28;20496;-69
2022/02/21 00:12:50;;;;;;;3.55;1.38;;;;;;;6.71;88.60;98268.19;5086172;28;20063;-69
2022/02/21 00:15:23;;;;;;;3.33;1.17;;;;;;;6.66;89.17;98286.97;5089388;28;20045;-69
2022/02/21 00:17:51;;;;;;;5.53;1.50;;;;;;;6.65;88.79;98296.41;5074435;28;20390;-69
2022/02/21 00:20:19;;;;;;;4.22;1.48;;;;;;;6.67;89.28;98303.22;5077275;28;20528;-69
2022/02/21 00:22:46;;;;;;;5.15;1.40;;;;;;;6.68;87.92;98301.28;5085810;28;20055;-69
2022/02/21 00:25:13;;;;;;;3.33;1.33;;;;;;;6.68;88.23;98306.81;5081862;28;20389;-69
2022/02/21 00:27:40;;;;;;;4.30;1.30;;;;;;;6.63;87.40;98298.72;5086803;28;20079;-69
2022/02/21 00:30:11;;;;;;;4.10;1.30;;;;;;;6.62;86.36;98300.69;5074770;28;20079;-69
2022/02/21 00:32:38;;;;;;;4.13;1.23;;;;;;;6.63;87.29;98304.25;5074550;28;20047;-69
2022/02/21 00:35:06;;;;;;;3.35;1.50;;;;;;;6.52;87.21;98303.06;5092672;28;20422;-69
2022/02/21 00:37:34;;;;;;;6.20;1.48;;;;;;;6.53;87.18;98307.44;5092449;28;20475;-69
2022/02/21 00:40:01;;;;;;;5.38;1.70;;;;;;;6.53;87.32;98297.19;5085572;28;20075;-69
2022/02/21 00:42:28;;;;;;;3.30;1.27;;;;;;;6.67;86.99;98307.94;5078405;28;20053;-69
2022/02/21 00:44:58;;;;;;;5.45;1.67;;;;;;;6.67;86.22;98310.72;5075415;28;20052;-69
2022/02/21 00:47:28;;;;;;;5.00;1.90;;;;;;;6.73;86.35;98306.56;5075434;28;20053;-69
2022/02/21 00:49:56;;;;;;;4.55;1.80;;;;;;;6.81;86.12;98321.47;5083562;28;20060;-69
2022/02/21 00:52:24;;;;;;;7.18;2.25;;;;;;;6.80;85.23;98326.19;5084457;28;20044;-69
2022/02/21 00:54:52;;;;;;;7.00;2.22;;;;;;;6.78;83.88;98342.31;5083768;28;20071;-69
2022/02/21 00:57:20;;;;;;;4.65;2.20;;;;;;;6.78;83.69;98339.53;5079919;28;20059;-69
2022/02/21 00:59:48;;;;;;;6.28;2.25;;;;;;;6.87;84.42;98337.50;5083373;28;20041;-69
2022/02/21 01:02:15;;;;;;;6.70;2.30;;;;;;;6.87;82.63;98354.13;5087640;28;20516;-69
2022/02/21 01:04:44;;;;;;;7.00;2.10;;;;;;;6.87;81.01;98339.47;5082835;28;20173;-69
2022/02/21 01:07:11;;;;;;;6.68;2.22;;;;;;;6.91;81.43;98359.78;5080651;28;20440;-69
2022/02/21 01:09:39;;;;;;;5.80;2.00;;;;;;;6.94;81.30;98380.44;5082740;28;20056;-69
2022/02/21 01:12:07;;;;;;;8.23;2.20;;;;;;;6.91;81.87;98366.13;5083762;28;20072;-69
2022/02/21 01:14:36;;;;;;;6.43;2.10;;;;;;;6.93;80.53;98362.19;5093559;28;20059;-69
2022/02/21 01:17:03;;;;;;;9.65;2.40;;;;;;;6.90;80.43;98364.50;5077097;28;20059;-69
2022/02/21 01:19:31;;;;;;;4.15;1.83;;;;;;;6.94;81.23;98381.22;5076951;28;20501;-69
2022/02/21 01:22:03;;;;;;;9.68;2.85;;;;;;;6.85;80.65;98344.53;5082621;28;20044;-69
2022/02/21 01:24:30;;;;;;;7.32;2.30;;;;;;;6.96;79.45;98334.66;5086539;28;20063;-69
2022/02/21 01:26:58;;;;;;;9.30;2.58;;;;;;;6.94;79.96;98347.22;5079181;28;20048;-69
2022/02/21 01:29:25;;;;;;;7.78;3.13;;;;;;;6.95;79.02;98354.34;5080075;28;20110;-69
2022/02/21 01:31:54;;;;;;;8.32;2.38;;;;;;;6.90;79.70;98378.31;5085177;28;20052;-69
2022/02/21 01:34:24;;;;;;;7.80;2.03;;;;;;;6.84;78.70;98399.06;5084989;28;20048;-69
2022/02/21 01:36:52;;;;;;;8.02;2.45;;;;;;;6.85;77.22;98377.75;5081091;28;20053;-69
2022/02/21 01:39:21;;;;;;;9.90;2.90;;;;;;;6.86;78.78;98388.47;5079807;28;20045;-69
2022/02/21 01:41:49;;;;;;;8.32;2.17;;;;;;;6.78;77.79;98361.69;5085487;28;20056;-69
2022/02/21 01:44:17;;;;;;;6.50;1.90;;;;;;;6.81;77.93;98369.31;5080758;28;20059;-69
2022/02/21 01:46:45;;;;;;;8.43;1.95;;;;;;;6.77;77.79;98398.00;5078444;28;20055;-68
2022/02/21 01:49:14;;;;;;;5.43;1.55;;;;;;;6.84;78.76;98382.47;5081866;28;20044;-68
2022/02/21 01:51:42;;;;;;;8.33;1.80;;;;;;;6.81;76.70;98380.38;5083237;28;20165;-68
2022/02/21 01:54:11;;;;;;;7.35;2.42;;;;;;;6.81;78.20;98377.63;5082250;28;20048;-68
2022/02/21 01:56:39;;;;;;;6.93;1.50;;;;;;;6.86;76.87;98379.34;5077595;28;20066;-68
2022/02/21 01:59:07;;;;;;;6.22;1.48;;;;;;;6.81;75.43;98398.94;5086382;28;20481;-68
2022/02/21 02:01:35;;;;;;;7.32;2.13;;;;;;;6.82;76.49;98406.09;5081644;28;20052;-68
2022/02/21 02:04:03;;;;;;;8.68;2.85;;;;;;;6.79;75.82;98412.31;5087339;28;20049;-67
2022/02/21 02:06:31;;;;;;;5.95;1.70;;;;;;;6.75;75.27;98401.13;5072849;28;20048;-67
2022/02/21 02:08:59;;;;;;;7.72;1.73;;;;;;;6.73;75.49;98402.59;5077333;28;20489;-67
2022/02/21 02:11:26;;;;;;;8.73;1.95;;;;;;;6.61;74.08;98395.06;5090195;28;20070;-67
2022/02/21 02:13:55;;;;;;;7.30;2.50;;;;;;;6.63;75.77;98398.28;5093164;28;20056;-67
2022/02/21 02:16:24;;;;;;;6.95;2.30;;;;;;;6.77;76.47;98409.88;5092426;28;20048;-67
2022/02/21 02:18:51;;;;;;;7.57;2.38;;;;;;;6.78;77.12;98413.44;5088710;28;20052;-67
2022/02/21 02:21:21;;;;;;;9.13;2.08;;;;;;;6.68;76.12;98409.97;5085367;28;20049;-67
2022/02/21 02:23:51;;;;;;;8.07;1.98;;;;;;;6.69;75.57;98416.31;5080548;28;20389;-67
2022/02/21 02:26:19;;;;;;;6.95;2.13;;;;;;;6.63;76.49;98403.81;5082054;28;20063;-68
2022/02/21 02:28:47;;;;;;;6.68;1.75;;;;;;;6.66;75.70;98411.47;5077079;28;20062;-68
2022/02/21 02:31:14;;;;;;;8.93;2.55;;;;;;;6.59;75.42;98414.75;5082584;28;20051;-68
2022/02/21 02:33:41;;;;;;;7.00;2.05;;;;;;;6.60;75.70;98419.16;5076473;28;20056;-67
2022/02/21 02:36:10;;;;;;;7.95;1.90;;;;;;;6.53;74.81;98438.25;5081840;28;20065;-67
2022/02/21 02:38:37;;;;;;;9.48;2.10;;;;;;;6.49;74.17;98420.72;5087648;28;20036;-67
2022/02/21 02:41:06;;;;;;;8.48;2.38;;;;;;;6.48;73.11;98425.41;5088825;28;20044;-67
2022/02/21 02:43:34;;;;;;;10.52;1.92;;;;;;;6.45;73.36;98415.03;5075667;28;20044;-67
2022/02/21 02:46:01;;;;;;;6.35;1.80;;;;;;;6.51;74.83;98423.94;5078217;28;20056;-67
2022/02/21 02:48:29;;;;;;;10.73;2.25;;;;;;;6.47;73.19;98423.00;5075066;28;20075;-67
2022/02/21 02:50:56;;;;;;;7.80;2.45;;;;;;;6.40;73.71;98417.19;5083930;28;20052;-67
2022/02/21 02:53:23;;;;;;;12.32;3.67;;;;;;;6.36;74.13;98416.25;5082542;28;20052;-67
2022/02/21 02:55:51;;;;;;;12.57;2.63;;;;;;;6.39;73.27;98427.44;5075604;28;20048;-67
2022/02/21 02:58:19;;;;;;;11.07;2.40;;;;;;;6.35;72.10;98442.28;5074211;28;20429;-67
2022/02/21 03:00:47;;;;;;;10.43;2.53;;;;;;;6.17;71.84;98456.22;5084667;28;20055;-67
2022/02/21 03:03:15;;;;;;;11.07;2.30;;;;;;;6.12;71.69;98433.50;5077685;28;20048;-67
2022/02/21 03:05:42;;;;;;;8.02;3.05;;;;;;;6.04;72.36;98455.31;5081919;28;20378;-67
2022/02/21 03:08:10;;;;;;;8.57;2.70;;;;;;;6.10;72.17;98464.22;5076228;28;20059;-67
2022/02/21 03:10:37;;;;;;;12.88;2.65;;;;;;;6.12;71.19;98478.53;5085111;28;20048;-67
2022/02/21 03:13:05;;;;;;;9.38;2.47;;;;;;;6.06;70.97;98477.91;5080023;28;20063;-67
2022/02/21 03:15:33;;;;;;;7.22;2.60;;;;;;;6.09;71.58;98466.19;5079107;28;20048;-67
2022/02/21 03:18:01;;;;;;;8.63;2.28;;;;;;;6.17;71.23;98469.22;5081392;28;20571;-67
2022/02/21 03:20:33;;;;;;;11.82;2.58;;;;;;;6.10;70.42;98475.28;5080068;28;20044;-66
2022/02/21 03:23:01;;;;;;;9.02;2.13;;;;;;;6.16;71.04;98475.91;5081147;28;20117;-66
2022/02/21 03:25:28;;;;;;;10.85;2.70;;;;;;;6.14;71.20;98486.50;5084035;28;20055;-66
2022/02/21 03:27:56;;;;;;;8.88;2.75;;;;;;;6.08;69.38;98497.72;5081016;28;20048;-66
2022/02/21 03:30:24;;;;;;;14.00;2.95;;;;;;;6.15;70.04;98482.56;5090625;28;20066;-66
2022/02/21 03:32:53;;;;;;;9.13;2.50;;;;;;;6.28;70.61;98493.41;5087288;28;20048;-67
2022/02/21 03:35:21;;;;;;;;;;;;;;;6.25;67.23;98477.47;5087630;28;20052;-67
2022/02/21 03:37:48;;;;;;;7.43;3.45;;;;;;;6.24;68.62;98475.06;5095814;28;19920;-67
2022/02/21 03:40:18;;;;;;;10.70;2.58;;;;;;;6.40;70.16;98478.81;5095845;28;20051;-67
2022/02/21 03:42:45;;;;;;;12.75;2.65;;;;;;;6.46;69.48;98477.50;5087893;28;20067;-67
2022/02/21 03:45:19;;;;;;;10.95;2.95;;;;;;;6.49;68.44;98476.84;5081428;28;20047;-67
2022/02/21 03:47:46;;;;;;;7.95;2.33;;;;;;;6.49;69.63;98481.56;5089514;28;20052;-67
2022/02/21 03:50:15;;;;;;;8.05;2.58;;;;;;;6.57;68.75;98482.63;5090250;28;20048;-67
2022/02/21 03:52:42;;;;;;;10.93;3.33;;;;;;;6.61;67.40;98495.44;5075611;28;20400;-67
2022/02/21 03:55:10;;;;;;;14.68;2.90;;;;;;;6.29;69.18;98508.81;5083501;28;20053;-69
2022/02/21 03:57:37;;;;;;;10.60;3.05;;;;;;;6.23;70.61;98539.78;5086513;28;20492;-70
2022/02/21 04:00:08;;;;;;;6.43;2.15;;;;;;;5.84;73.18;98550.00;5086116;28;20052;-70
2022/02/21 04:02:36;;;;;;;8.45;2.70;;;;;;;5.68;74.86;98541.41;5082812;28;20069;-70
2022/02/21 04:05:04;;;;;;;8.15;2.70;;;;;;;5.45;74.87;98540.84;5080997;28;20060;-70
2022/02/21 04:07:33;;;;;;;8.48;2.50;;;;;;;5.44;75.68;98553.03;5090992;28;20066;-70
2022/02/21 04:10:01;;;;;;;9.07;2.58;;;;;;;5.34;75.57;98553.38;5080747;28;20412;-70
2022/02/21 04:12:28;;;;;;;10.43;2.97;;;;;;;5.39;76.42;98555.94;5084706;28;20070;-70
2022/02/21 04:14:56;;;;;;;14.70;4.20;;;;;;;5.24;76.41;98558.06;5082756;28;20052;-70
2022/02/21 04:17:23;;;;;;;11.52;3.35;;;;;;;5.35;76.74;98543.94;5088630;28;20051;-70
2022/02/21 04:19:51;;;;;;;9.35;3.72;;;;;;;5.39;76.54;98539.38;5081825;28;20056;-70
2022/02/21 04:22:18;;;;;;;5.82;2.30;;;;;;;5.45;77.37;98532.56;5082752;28;20056;-70
2022/02/21 04:24:47;;;;;;;9.20;2.60;;;;;;;5.43;76.90;98530.09;5087866;28;20059;-70
2022/02/21 04:27:15;;;;;;;11.27;3.13;;;;;;;5.34;77.32;98553.38;5085766;28;20052;-70
2022/02/21 04:29:42;;;;;;;9.38;2.40;;;;;;;5.33;76.10;98548.97;5088273;28;20052;-70
2022/02/21 04:32:11;;;;;;;6.80;2.65;;;;;;;5.29;75.28;98552.41;5078241;28;20049;-70
2022/02/21 04:34:39;;;;;;;10.23;2.88;;;;;;;5.24;75.33;98558.06;5074219;28;20056;-70
2022/02/21 04:37:08;;;;;;;11.55;2.42;;;;;;;5.28;74.56;98556.28;5088467;28;20055;-70
2022/02/21 04:39:35;;;;;;;8.82;2.42;;;;;;;5.28;74.17;98567.31;5086994;28;20048;-70
2022/02/21 04:42:05;;;;;;;8.73;3.05;;;;;;;5.25;72.95;98562.47;5082325;28;20052;-70
2022/02/21 04:44:32;;;;;;;10.70;3.03;;;;;;;5.09;73.04;98566.84;5093973;28;20058;-70
2022/02/21 04:46:59;;;;;;;7.80;2.08;;;;;;;5.18;73.20;98566.84;5094913;28;20373;-70
2022/02/21 04:49:29;;;;;;;9.05;2.20;;;;;;;5.19;72.31;98555.50;5094198;28;20493;-70
2022/02/21 04:51:57;;;;;;;8.93;2.78;;;;;;;5.06;72.58;98567.47;5087802;28;20041;-70
2022/02/21 04:54:24;;;;;;;5.50;1.85;;;;;;;5.17;72.47;98565.25;5089274;28;20620;-70
2022/02/21 04:56:52;;;;;;;6.10;2.15;;;;;;;5.07;72.61;98597.53;5083636;28;20052;-70
2022/02/21 04:59:20;;;;;;;9.38;2.10;;;;;;;5.06;73.27;98617.16;5091985;28;20055;-70
2022/02/21 05:01:48;;;;;;;6.35;2.13;;;;;;;4.97;74.44;98594.28;5081874;28;20420;-69
2022/02/21 05:04:15;;;;;;;7.18;1.90;;;;;;;4.94;73.83;98597.69;5094096;28;20062;-69
2022/02/21 05:06:44;;;;;;;8.27;1.80;;;;;;;4.96;73.62;98589.91;5094302;28;20063;-69
2022/02/21 05:09:11;;;;;;;8.10;1.95;;;;;;;4.83;73.31;98614.56;5089172;28;20048;-69
2022/02/21 05:11:38;;;;;;;9.23;2.50;;;;;;;4.72;73.56;98599.44;5074688;28;20453;-69
2022/02/21 05:14:05;;;;;;;2.90;1.40;;;;;;;4.73;73.92;98608.53;5087524;28;20055;-69
2022/02/21 05:16:34;;;;;;;10.63;1.70;;;;;;;4.55;73.34;98638.81;5093913;28;20477;-70
2022/02/21 05:19:02;;;;;;;5.55;1.40;;;;;;;4.60;75.05;98641.44;5088251;28;20059;-70
2022/02/21 05:21:30;;;;;;;7.07;1.90;;;;;;;4.51;75.32;98606.69;5073738;28;20048;-70
2022/02/21 05:23:57;;;;;;;7.90;1.85;;;;;;;4.58;75.71;98626.34;5084757;28;20052;-70
2022/02/21 05:26:25;;;;;;;4.80;1.75;;;;;;;4.41;75.96;98638.94;5088882;28;20051;-70
2022/02/21 05:28:53;;;;;;;8.57;2.70;;;;;;;4.34;76.53;98638.56;5089389;28;20388;-70
2022/02/21 05:31:21;;;;;;;4.18;1.67;;;;;;;4.39;76.80;98612.81;5094091;28;20071;-70
2022/02/21 05:33:52;;;;;;;5.00;2.13;;;;;;;4.42;76.66;98604.72;5094004;28;20481;-70
2022/02/21 05:36:20;;;;;;;7.55;1.83;;;;;;;4.43;76.82;98609.09;5092084;28;20400;-70
2022/02/21 05:38:48;;;;;;;11.70;2.63;;;;;;;4.41;76.62;98600.34;5082455;28;20048;-70
2022/02/21 05:41:15;;;;;;;9.52;3.47;;;;;;;4.40;75.97;98595.16;5093285;28;20055;-70
2022/02/21 05:43:43;;;;;;;11.65;2.70;;;;;;;4.25;76.84;98612.94;5091088;28;20048;-70
2022/02/21 05:46:10;;;;;;;7.25;2.22;;;;;;;4.06;76.33;98611.22;5090279;28;20064;-70
2022/02/21 05:48:37;;;;;;;8.43;2.55;;;;;;;4.02;76.45;98604.72;5072880;28;20053;-70
2022/02/21 05:51:06;;;;;;;5.90;2.58;;;;;;;4.04;77.21;98596.94;5074096;28;20056;-69
2022/02/21 05:53:33;;;;;;;7.97;2.13;;;;;;;4.09;76.88;98614.47;5090735;28;20048;-69
2022/02/21 05:56:01;;;;;;;10.00;2.50;;;;;;;4.07;77.82;98607.34;5092152;28;20479;-69
2022/02/21 05:58:28;;;;;;;9.13;2.50;;;;;;;4.11;77.58;98599.25;5089952;28;20048;-69
2022/02/21 06:00:55;;;;;;;7.20;2.15;;;;;;;4.15;76.97;98596.69;5092864;28;20052;-69
2022/02/21 06:03:23;;;;;;;8.32;2.60;;;;;;;4.27;76.80;98589.44;5092788;28;20063;-70
2022/02/21 06:05:50;;;;;;;7.55;2.10;;;;;;;4.41;76.85;98589.31;5087617;28;20052;-69
2022/02/21 06:08:19;;;;;;;10.55;2.20;;;;;;;4.44;76.10;98593.38;5083308;28;20413;-69
2022/02/21 06:10:46;;;;;;;7.30;2.13;;;;;;;4.46;75.88;98594.66;5089423;28;20059;-69
2022/02/21 06:13:14;;;;;;;6.43;2.17;;;;;;;4.60;75.44;98607.50;5088607;28;20405;-68
2022/02/21 06:15:41;;;;;;;7.85;2.03;;;;;;;4.58;75.59;98610.59;5087050;28;20493;-69
2022/02/21 06:18:08;;;;;;;9.98;2.90;;;;;;;4.59;76.55;98606.69;5085207;28;20508;-69
2022/02/21 06:20:35;;;;;;;12.23;2.90;;;;;;;4.61;76.04;98614.66;5082256;28;20362;-70
2022/02/21 06:23:03;;;;;;;9.20;2.47;;;;;;;4.67;75.33;98613.38;5092365;28;20048;-70
2022/02/21 06:25:32;;;;;;;9.48;3.05;;;;;;;4.60;75.09;98626.81;5087688;28;20049;-70
2022/02/21 06:27:59;;;;;;;10.25;2.70;;;;;;;4.54;76.08;98630.88;5081283;28;20428;-70
2022/02/21 06:30:26;;;;;;;8.27;2.38;;;;;;;4.53;75.91;98619.00;5084485;28;20523;-70
2022/02/21 06:32:54;;;;;;;6.82;2.20;;;;;;;4.66;76.14;98628.28;5077728;28;20048;-70
2022/02/21 06:35:21;;;;;;;10.43;3.45;;;;;;;4.50;75.08;98636.22;5075424;28;20067;-70
2022/02/21 06:37:52;;;;;;;9.45;2.67;;;;;;;4.56;75.93;98645.16;5089034;28;20059;-70
2022/02/21 06:40:19;;;;;;;8.30;1.98;;;;;;;4.61;75.56;98662.34;5072063;28;20052;-70
2022/02/21 06:42:48;;;;;;;10.35;2.38;;;;;;;4.53;75.59;98652.09;5080316;28;20056;-70
2022/02/21 06:45:16;;;;;;;5.23;2.37;;;;;;;4.63;75.45;98651.81;5089225;28;20047;-69
2022/02/21 06:47:46;;;;;;;7.32;2.60;;;;;;;4.63;75.29;98656.50;5091206;28;20051;-69
2022/02/21 06:50:14;;;;;;;6.70;2.13;;;;;;;4.60;74.19;98652.47;5087972;28;20068;-70
2022/02/21 06:52:41;;;;;;;4.00;1.80;;;;;;;4.75;74.57;98658.66;5079513;28;20405;-70
2022/02/21 06:55:11;;;;;;;5.75;2.15;;;;;;;4.85;74.03;98656.41;5088436;28;20068;-69
2022/02/21 06:57:38;;;;;;;;;;;;;;;4.72;71.81;98660.09;5079564;28;20474;-69
2022/02/21 07:00:08;;;;;;;7.78;2.00;;;;;;;4.90;72.45;98652.69;5075116;28;19921;-69
2022/02/21 07:02:35;;;;;;;;;;;;;;;4.66;72.46;98650.34;5084517;28;20059;-69
2022/02/21 07:05:03;;;;;;;9.10;2.38;;;;;;;4.75;73.02;98642.13;5087971;28;19920;-70
2022/02/21 07:07:30;;;;;;;8.32;2.33;;;;;;;4.83;72.78;98661.44;5090914;28;20048;-69
2022/02/21 07:09:58;;;;;;;10.45;2.40;;;;;;;4.87;72.14;98662.44;5087824;28;20468;-69
2022/02/21 07:12:25;;;;;;;7.60;2.00;;;;;;;4.86;71.13;98644.25;5087737;28;20049;-69
2022/02/21 07:14:53;;;;;;;4.80;1.65;;;;;;;4.93;71.08;98651.22;5072574;28;20501;-69
2022/02/21 07:17:22;;;;;;;5.07;2.20;;;;;;;4.98;71.72;98662.13;5085257;28;20052;-69
2022/02/21 07:19:51;;;;;;;5.50;1.90;;;;;;;5.00;71.77;98649.63;5086398;28;20044;-69
2022/02/21 07:22:18;;;;;;;7.22;2.03;;;;;;;4.94;69.88;98641.84;5087081;28;20053;-69
2022/02/21 07:24:46;;;;;;;8.70;2.00;;;;;;;5.04;70.38;98645.09;5071427;28;20398;-69
2022/02/21 07:27:13;;;;;;;7.78;1.95;;;;;;;5.11;71.21;98644.59;5071611;28;20053;-69
2022/02/21 07:29:40;;;;;;;8.48;1.88;;;;;;;5.28;71.11;98654.84;5089300;28;20526;-69
2022/02/21 07:32:08;;;;;;;5.88;2.10;;;;;;;5.11;69.84;98639.09;5086974;28;20048;-69
2022/02/21 07:34:37;;;;;;;6.38;1.65;;;;;;;4.97;68.52;98666.00;5091845;28;20079;-69
2022/02/21 07:37:06;;;;;;;8.65;2.30;;;;;;;4.92;69.43;98641.34;5091994;28;20052;-68
2022/02/21 07:39:33;;;;;;;7.07;1.88;;;;;;;4.81;69.94;98660.16;5075272;28;20048;-68
2022/02/21 07:42:01;;;;;;;5.15;1.70;;;;;;;4.94;69.85;98650.13;5079632;28;20064;-70
2022/02/21 07:44:28;;;;;;;7.28;2.00;;;;;;;5.00;70.94;98648.81;5083227;28;20501;-70
2022/02/21 07:46:56;;;;;;;6.18;2.15;;;;;;;5.01;71.61;98654.00;5083610;28;20399;-69
2022/02/21 07:49:26;;;;;;;8.40;2.33;;;;;;;4.88;70.37;98658.53;5084621;28;20055;-70
2022/02/21 07:51:55;;;;;;;7.97;2.67;;;;;;;4.95;72.23;98657.25;5085589;28;20056;-69
2022/02/21 07:54:24;;;;;;;6.15;1.85;;;;;;;4.95;72.32;98651.72;5079815;28;20049;-69
2022/02/21 07:56:52;;;;;;;8.65;2.35;;;;;;;4.99;71.09;98647.19;5072157;28;20048;-69
2022/02/21 07:59:22;;;;;;;10.48;2.60;;;;;;;4.77;70.31;98640.66;5076801;28;20051;-69
2022/02/21 08:01:52;;;;;;;5.60;1.75;;;;;;;4.88;71.80;98649.44;5073149;28;20052;-69
2022/02/21 08:04:24;;;;;;;5.88;2.20;;;;;;;4.86;71.80;98647.00;5078405;28;20059;-69
2022/02/21 08:06:52;;;;;;;6.97;2.55;;;;;;;5.05;69.43;98634.84;5075842;28;20053;-70
2022/02/21 08:09:30;;;;;;;10.60;2.78;;;;;;;5.06;71.18;98625.44;5076613;28;20047;-71
2022/02/21 08:11:58;;;;;;;9.15;2.72;;;;;;;5.01;70.95;98623.66;5076920;28;20494;-70
2022/02/21 08:14:25;;;;;;;6.47;2.42;;;;;;;5.33;70.51;98623.50;5086515;28;20044;-69
2022/02/21 08:16:53;;;;;;;6.05;2.30;;;;;;;5.16;68.54;98630.63;5080944;28;20052;-69
2022/02/21 08:19:20;;;;;;;11.20;2.65;;;;;;;5.15;69.53;98612.47;5083671;28;20052;-69
2022/02/21 08:21:47;;;;;;;12.77;3.00;;;;;;;5.16;67.40;98665.72;5083278;28;20056;-69
2022/02/21 08:24:15;;;;;;;10.10;2.53;;;;;;;5.21;68.46;98622.22;5086451;28;20052;-68
2022/02/21 08:26:44;;;;;;;11.52;2.90;;;;;;;5.43;67.26;98623.97;5092594;28;20075;-69
2022/02/21 08:29:12;;;;;;;13.23;3.00;;;;;;;5.36;66.20;98645.75;5081036;28;20389;-69
2022/02/21 08:31:40;;;;;;;12.68;2.88;;;;;;;5.34;66.95;98631.47;5079586;28;20052;-69
2022/02/21 08:34:08;;;;;;;13.48;2.88;;;;;;;5.40;67.99;98635.69;5076996;28;20397;-69
2022/02/21 08:36:37;;;;;;;7.63;2.50;;;;;;;5.43;67.07;98642.50;5091073;28;20060;-70
2022/02/21 08:39:07;;;;;;;8.07;2.25;;;;;;;5.51;67.70;98636.16;5081290;28;20064;-69
2022/02/21 08:41:34;;;;;;;;;;;;;;;5.54;66.00;98629.97;5083688;28;20059;-70
2022/02/21 08:44:03;;;;;;;9.05;2.97;;;;;;;5.67;65.15;98664.91;5087835;28;19927;-70
2022/02/21 08:46:30;;;;;;;9.32;3.03;;;;;;;5.68;66.69;98651.91;5091558;28;20484;-70
2022/02/21 08:48:58;;;;;;;7.13;2.47;;;;;;;5.75;64.26;98645.88;5073476;28;20076;-70
2022/02/21 08:51:25;;;;;;;8.85;3.33;;;;;;;5.85;65.94;98632.53;5078230;28;20044;-70
2022/02/21 08:53:53;;;;;;;7.82;2.97;;;;;;;5.87;63.63;98648.78;5077378;28;20469;-70
2022/02/21 08:56:21;;;;;;;10.82;2.83;;;;;;;5.92;65.28;98623.75;5089566;28;20052;-70
2022/02/21 08:58:48;;;;;;;10.23;2.72;;;;;;;6.27;66.00;98629.19;5085532;28;20492;-69
2022/02/21 09:01:17;;;;;;;10.25;2.70;;;;;;;6.25;63.58;98614.88;5082398;28;20420;-70
2022/02/21 09:03:44;;;;;;;9.32;3.03;;;;;;;6.56;63.81;98622.09;5072734;28;20386;-70
2022/02/21 09:06:12;;;;;;;8.00;2.45;;;;;;;7.10;62.62;98619.47;5076439;28;20059;-70
2022/02/21 09:08:39;;;;;;;7.05;2.78;;;;;;;7.80;60.46;98610.56;5072656;28;20418;-70
2022/02/21 09:11:06;;;;;;;7.05;2.38;;;;;;;8.53;61.45;98615.44;5075040;28;20055;-70
2022/02/21 09:13:34;;;;;;;8.50;2.10;;;;;;;8.81;56.43;98615.53;5078795;28;20480;-69
2022/02/21 09:16:02;;;;;;;7.18;2.20;;;;;;;8.83;56.23;98612.44;5079527;28;20049;-69
2022/02/21 09:18:31;;;;;;;10.07;2.27;;;;;;;8.68;56.33;98620.28;5072259;28;20051;-68
2022/02/21 09:20:59;;;;;;;7.28;1.88;;;;;;;8.57;56.78;98618.31;5071702;28;20056;-68
2022/02/21 09:23:26;;;;;;;8.02;2.78;;;;;;;8.59;54.40;98607.69;5088315;28;20044;-69
2022/02/21 09:25:55;;;;;;;7.60;2.30;;;;;;;8.49;53.95;98600.66;5087210;28;20052;-70
2022/02/21 09:28:23;;;;;;;8.00;2.75;;;;;;;9.41;55.57;98579.66;5082519;28;20048;-70
2022/02/21 09:30:53;;;;;;;6.85;2.78;;;;;;;9.59;55.03;98594.03;5083575;28;20051;-70
2022/02/21 09:33:21;;;;;;;9.02;2.45;;;;;;;9.43;55.17;98598.72;5071704;28;20040;-70
2022/02/21 09:35:49;;;;;;;5.25;1.98;;;;;;;9.25;54.60;98601.81;5076767;28;20095;-70
2022/02/21 09:38:17;;;;;;;7.27;2.70;;;;;;;9.20;53.96;98595.69;5071951;28;20410;-70
2022/02/21 09:40:46;;;;;;;8.50;2.20;;;;;;;9.29;51.36;98583.28;5076343;28;20497;-71
2022/02/21 09:43:15;;;;;;;7.30;2.03;;;;;;;8.88;55.66;98595.50;5072972;28;20045;-70
2022/02/21 09:45:43;;;;;;;7.75;2.45;;;;;;;8.80;54.61;98579.78;5077587;28;20412;-71
2022/02/21 09:48:14;;;;;;;6.07;1.70;;;;;;;9.46;55.33;98567.47;5084652;28;20071;-71
2022/02/21 09:50:42;;;;;;;7.25;1.92;;;;;;;9.61;54.48;98574.25;5073415;28;20064;-70
2022/02/21 09:53:11;;;;;;;5.95;2.10;;;;;;;9.22;51.44;98583.06;5081638;28;20057;-71
2022/02/21 09:55:39;;;;;;;7.53;2.40;;;;;;;8.62;52.31;98584.81;5079000;28;20134;-69
2022/02/21 09:58:12;;;;;;;7.70;2.20;;;;;;;8.56;53.86;98559.25;5075720;28;20492;-70
2022/02/21 10:00:39;;;;;;;5.97;2.00;;;;;;;8.39;54.61;98557.47;5087339;28;20377;-70
2022/02/21 10:03:06;;;;;;;7.05;1.92;;;;;;;8.37;55.63;98567.31;5082028;28;20066;-70
2022/02/21 10:05:34;;;;;;;7.85;2.25;;;;;;;8.29;54.60;98560.72;5083195;28;20409;-69
2022/02/21 10:08:08;;;;;;;6.75;1.80;;;;;;;8.14;54.33;98542.78;5083750;28;20048;-70
2022/02/21 10:10:38;;;;;;;6.97;2.28;;;;;;;7.76;53.62;98562.50;5080978;28;20052;-69
2022/02/21 10:13:05;;;;;;;7.30;1.55;;;;;;;7.50;55.03;98549.72;5086122;28;20048;-68
2022/02/21 10:15:34;;;;;;;6.97;2.22;;;;;;;7.56;56.54;98545.59;5083435;28;20048;-68
2022/02/21 10:18:13;;;;;;;8.77;2.27;;;;;;;7.45;55.70;98556.28;5081612;28;20058;-68
2022/02/21 10:21:00;;;;;;;6.30;2.35;;;;;;;7.41;56.40;98537.91;5075890;28;20478;-68
2022/02/21 10:23:30;;;;;;;11.20;2.33;;;;;;;7.18;56.78;98534.72;5091003;28;20052;-68
2022/02/21 10:26:00;;;;;;;;;;;;;;;7.31;57.37;98550.25;5084826;28;20058;-69
2022/02/21 10:28:30;;;;;;;6.45;2.58;;;;;;;7.14;58.63;98529.06;5083847;28;20389;-69
2022/02/21 10:31:14;;;;;;;7.93;2.55;;;;;;;7.32;58.56;98535.22;5088754;28;20048;-69
2022/02/21 10:33:50;;;;;;;8.43;2.88;;;;;;;7.15;64.24;98586.03;5078108;28;20052;-47
2022/02/21 10:36:34;;;;;;;7.40;1.88;;;;;;;7.32;60.62;98524.94;5079245;28;20059;-70
2022/02/21 10:39:05;;;;;;;8.13;2.63;;;;;;;7.38;61.33;98555.22;5083841;28;20055;-67
2022/02/21 10:41:46;;;;;;;6.47;2.05;;;;;;;6.93;62.10;98529.06;5077085;28;20493;-68
2022/02/21 10:44:19;;;;;;;7.07;2.10;;;;;;;7.16;62.68;98529.53;5077707;28;20044;-68
2022/02/21 10:47:05;;;;;;;9.25;2.17;;;;;;;7.07;61.89;98539.84;5067939;28;20064;-68
2022/02/21 10:49:33;;;;;;;11.55;2.53;;;;;;;6.88;63.27;98532.84;5080791;28;20202;-68
2022/02/21 10:52:12;;;;;;;7.93;2.50;;;;;;;6.81;65.94;98534.53;5083989;28;20072;-68
2022/02/21 10:54:39;;;;;;;13.23;2.67;;;;;;;6.81;65.16;98510.44;5089121;28;20059;-69
2022/02/21 10:57:10;;;;;;;9.27;3.08;;;;;;;6.82;65.96;98528.66;5079292;28;20052;-69
2022/02/21 10:59:38;;;;;;;9.80;2.83;;;;;;;6.22;68.92;98522.38;5079476;28;20477;-66
2022/02/21 11:02:07;;;;;;;9.90;2.30;;;;;;;5.83;71.27;98502.19;5088839;28;20060;-70
2022/02/21 11:04:37;;;;;;;7.18;2.67;;;;;;;5.73;73.52;98521.09;5074642;28;20048;-70
2022/02/21 11:07:06;;;;;;;8.15;2.42;;;;;;;5.74;74.02;98508.91;5083653;28;20059;-70
2022/02/21 11:09:34;;;;;;;10.33;2.83;;;;;;;5.60;72.22;98522.94;5081869;28;20040;-70
2022/02/21 11:12:04;;;;;;;10.95;2.38;;;;;;;5.43;76.32;98515.50;5074045;28;20479;-70
2022/02/21 11:14:34;;;;;;;15.13;2.83;;;;;;;5.29;78.05;98530.31;5079371;28;20396;-69
2022/02/21 11:17:04;;;;;;;8.45;2.00;;;;;;;5.12;78.42;98507.44;5077208;28;20048;-68
2022/02/21 11:19:32;;;;;;;13.43;2.33;;;;;;;5.07;79.64;98561.66;5070071;28;20063;-67
2022/02/21 11:21:59;;;;;;;11.75;2.85;;;;;;;5.03;79.88;98521.25;5086802;28;20048;-68
2022/02/21 11:24:29;;;;;;;9.40;2.85;;;;;;;5.00;81.37;98516.38;5083985;28;20048;-68
2022/02/21 11:27:19;;;;;;;14.82;2.97;;;;;;;5.03;82.21;98499.16;5073324;28;20489;-68
2022/02/21 11:30:01;;;;;;;7.55;2.42;;;;;;;4.67;82.04;98500.31;5076745;28;20812;-69
2022/02/21 11:32:28;;;;;;;6.47;2.72;;;;;;;4.70;82.68;98499.66;5084014;28;20052;-70
2022/02/21 11:35:15;;;;;;;6.95;2.03;;;;;;;4.78;83.02;98478.75;5075842;28;20044;-70
2022/02/21 11:37:43;;;;;;;10.43;3.03;;;;;;;4.84;84.05;98485.72;5090486;28;20062;-70
2022/02/21 11:40:13;;;;;;;12.85;3.22;;;;;;;4.72;84.73;98472.56;5086986;28;20067;-71
2022/02/21 11:42:42;;;;;;;11.57;3.13;;;;;;;4.72;86.31;98467.06;5077631;28;20071;-71
2022/02/21 11:45:27;;;;;;;7.88;3.20;;;;;;;4.66;86.31;98471.94;5078537;28;20485;-71
2022/02/21 11:47:58;;;;;;;8.82;2.90;;;;;;;4.60;85.88;98450.34;5074311;28;20048;-72